createdAt,value
2023-12-23T00:00:32.376Z,94763.00
2023-12-23T00:01:32.948Z,94774.00
2023-12-23T00:02:32.328Z,94753.00
2023-12-23T00:03:32.401Z,94775.00
2023-12-23T00:04:32.354Z,94758.00
2023-12-23T00:05:32.342Z,94771.00
2023-12-23T00:06:32.293Z,94771.00
2023-12-23T00:07:32.279Z,94786.00
2023-12-23T00:08:32.306Z,94785.00
2023-12-23T00:09:32.263Z,94780.00
2023-12-23T00:10:32.300Z,94777.00
2023-12-23T00:11:32.243Z,94768.00
2023-12-23T00:12:32.530Z,94772.00
2023-12-23T00:13:32.229Z,94742.00
2023-12-23T00:14:32.219Z,94760.00
2023-12-23T00:15:32.235Z,94774.00
2023-12-23T00:16:32.219Z,94772.00
2023-12-23T00:17:32.498Z,94765.00
2023-12-23T00:18:32.283Z,94789.00
2023-12-23T00:19:32.295Z,94785.00
2023-12-23T00:20:32.183Z,94763.00
2023-12-23T00:21:32.245Z,94800.00
2023-12-23T00:22:32.150Z,94790.00
2023-12-23T00:23:32.147Z,94801.00
2023-12-23T00:24:32.173Z,94811.00
2023-12-23T00:25:33.187Z,94782.00
2023-12-23T00:26:32.113Z,94773.00
2023-12-23T00:27:32.111Z,94792.00
2023-12-23T00:28:32.109Z,94774.00
2023-12-23T00:29:32.101Z,94780.00
2023-12-23T00:30:32.162Z,94763.00
2023-12-23T00:31:32.098Z,94790.00
2023-12-23T00:32:32.095Z,94792.00
2023-12-23T00:33:32.071Z,94805.00
2023-12-23T00:34:32.055Z,94828.00
2023-12-23T00:35:32.058Z,94780.00
2023-12-23T00:36:32.047Z,94778.00
2023-12-23T00:37:32.046Z,94789.00
2023-12-23T00:38:32.015Z,94793.00
2023-12-23T00:39:32.030Z,94803.00
2023-12-23T00:40:32.000Z,94797.00
2023-12-23T00:41:32.002Z,94790.00
2023-12-23T00:42:31.976Z,94803.00
2023-12-23T00:43:31.991Z,94798.00
2023-12-23T00:44:31.959Z,94811.00
2023-12-23T00:45:31.959Z,94823.00
2023-12-23T00:46:31.953Z,94827.00
2023-12-23T00:47:35.393Z,94818.00
2023-12-23T00:48:33.037Z,94825.00
2023-12-23T00:49:31.982Z,94822.00
2023-12-23T00:50:31.921Z,94803.00
2023-12-23T00:51:31.911Z,94825.00
2023-12-23T00:52:31.891Z,94836.00
2023-12-23T00:53:31.886Z,94822.00
2023-12-23T00:54:31.896Z,94847.00
2023-12-23T00:55:31.872Z,94848.00
2023-12-23T00:56:31.865Z,94831.00
2023-12-23T00:57:31.843Z,94817.00
2023-12-23T00:58:31.921Z,94834.00
2023-12-23T00:59:31.855Z,94848.00
2023-12-23T01:00:31.829Z,94848.00
2023-12-23T01:01:31.855Z,94834.00
2023-12-23T01:02:31.801Z,94828.00
2023-12-23T01:03:31.825Z,94845.00
2023-12-23T01:04:31.777Z,94853.00
2023-12-23T01:05:31.819Z,94848.00
2023-12-23T01:06:31.843Z,94848.00
2023-12-23T01:07:31.806Z,94856.00
2023-12-23T01:08:31.757Z,94853.00
2023-12-23T01:09:31.741Z,94835.00
2023-12-23T01:10:31.748Z,94841.00
2023-12-23T01:11:31.725Z,94856.00
2023-12-23T01:12:31.718Z,94871.00
2023-12-23T01:13:31.703Z,94869.00
2023-12-23T01:14:31.710Z,94853.00
2023-12-23T01:15:31.685Z,94857.00
2023-12-23T01:16:31.696Z,94848.00
2023-12-23T01:17:31.681Z,94827.00
2023-12-23T01:18:31.710Z,94823.00
2023-12-23T01:19:31.660Z,94852.00
2023-12-23T01:20:31.643Z,94856.00
2023-12-23T01:21:31.642Z,94862.00
2023-12-23T01:22:31.624Z,94875.00
2023-12-23T01:23:31.618Z,94856.00
2023-12-23T01:24:31.615Z,94906.00
2023-12-23T01:25:31.611Z,94856.00
2023-12-23T01:26:31.582Z,94838.00
2023-12-23T01:27:31.574Z,94862.00
2023-12-23T01:28:31.564Z,94889.00
2023-12-23T01:29:31.579Z,94872.00
2023-12-23T01:30:31.605Z,94892.00
2023-12-23T01:31:31.551Z,94859.00
2023-12-23T01:32:31.616Z,94825.00
2023-12-23T01:33:31.719Z,94850.00
2023-12-23T01:34:31.529Z,94895.00
2023-12-23T01:35:31.510Z,94884.00
2023-12-23T01:36:31.502Z,94904.00
2023-12-23T01:37:31.534Z,94904.00
2023-12-23T01:38:31.487Z,94890.00
2023-12-23T01:39:31.469Z,94892.00
2023-12-23T01:40:31.456Z,94888.00
2023-12-23T01:41:31.468Z,94930.00
2023-12-23T01:42:31.452Z,94933.00
2023-12-23T01:43:31.444Z,94905.00
2023-12-23T01:44:31.432Z,94908.00
2023-12-23T01:45:34.181Z,94874.00
2023-12-23T01:46:31.401Z,94910.00
2023-12-23T01:47:31.519Z,94905.00
2023-12-23T01:48:31.521Z,94918.00
2023-12-23T01:49:31.383Z,94897.00
2023-12-23T01:50:31.392Z,94880.00
2023-12-23T01:51:31.379Z,94914.00
2023-12-23T01:52:31.364Z,94908.00
2023-12-23T01:53:31.358Z,94940.00
2023-12-23T01:54:31.353Z,94939.00
2023-12-23T01:55:31.363Z,94940.00
2023-12-23T01:56:31.321Z,94944.00
2023-12-23T01:57:31.339Z,94948.00
2023-12-23T01:58:31.304Z,94955.00
2023-12-23T01:59:31.306Z,94959.00
2023-12-23T02:00:31.336Z,94949.00
2023-12-23T02:01:31.393Z,94949.00
2023-12-23T02:02:31.323Z,94965.00
2023-12-23T02:03:31.287Z,94955.00
2023-12-23T02:04:31.268Z,94942.00
2023-12-23T02:05:31.397Z,94959.00
2023-12-23T02:06:31.266Z,94963.00
2023-12-23T02:07:31.238Z,94945.00
2023-12-23T02:08:31.227Z,94954.00
2023-12-23T02:09:31.205Z,94945.00
2023-12-23T02:10:31.206Z,94936.00
2023-12-23T02:11:31.210Z,94958.00
2023-12-23T02:12:41.207Z,94951.00
2023-12-23T02:13:31.198Z,94976.00
2023-12-23T02:14:31.182Z,94985.00
2023-12-23T02:15:31.162Z,94929.00
2023-12-23T02:16:31.147Z,94946.00
2023-12-23T02:17:36.182Z,94957.00
2023-12-23T02:18:31.188Z,94975.00
2023-12-23T02:19:31.126Z,94974.00
2023-12-23T02:20:31.160Z,94991.00
2023-12-23T02:21:31.105Z,95002.00
2023-12-23T02:22:31.123Z,94987.00
2023-12-23T02:23:31.104Z,94985.00
2023-12-23T02:24:31.096Z,95007.00
2023-12-23T02:25:31.075Z,95012.00
2023-12-23T02:26:31.075Z,94997.00
2023-12-23T02:27:31.068Z,94997.00
2023-12-23T02:28:31.057Z,95006.00
2023-12-23T02:29:31.052Z,95010.00
2023-12-23T02:30:31.104Z,95008.00
2023-12-23T02:31:31.008Z,94985.00
2023-12-23T02:32:31.071Z,94964.00
2023-12-23T02:33:31.159Z,94968.00
2023-12-23T02:34:31.005Z,94968.00
2023-12-23T02:35:30.973Z,94991.00
2023-12-23T02:36:30.984Z,94999.00
2023-12-23T02:37:30.969Z,94981.00
2023-12-23T02:38:30.957Z,94994.00
2023-12-23T02:39:30.960Z,94972.00
2023-12-23T02:40:30.943Z,94973.00
2023-12-23T02:41:30.940Z,94973.00
2023-12-23T02:42:30.916Z,94988.00
2023-12-23T02:43:30.926Z,94998.00
2023-12-23T02:44:30.909Z,95007.00
2023-12-23T02:45:30.899Z,95007.00
2023-12-23T02:46:30.903Z,94998.00
2023-12-23T02:47:30.911Z,95010.00
2023-12-23T02:48:30.953Z,95020.00
2023-12-23T02:49:30.864Z,95000.00
2023-12-23T02:50:30.850Z,94991.00
2023-12-23T02:51:30.834Z,95000.00
2023-12-23T02:52:30.858Z,94993.00
2023-12-23T02:53:30.875Z,95005.00
2023-12-23T02:54:30.820Z,94985.00
2023-12-23T02:55:30.795Z,95016.00
2023-12-23T02:56:30.800Z,95008.00
2023-12-23T02:57:30.796Z,95005.00
2023-12-23T02:58:30.779Z,95005.00
2023-12-23T02:59:30.859Z,95010.00
2023-12-23T03:00:30.762Z,95007.00
2023-12-23T03:01:30.762Z,94987.00
2023-12-23T03:02:30.741Z,94994.00
2023-12-23T03:03:30.756Z,95042.00
2023-12-23T03:04:30.738Z,95031.00
2023-12-23T03:05:30.771Z,95033.00
2023-12-23T03:06:30.724Z,95025.00
2023-12-23T03:07:30.696Z,95028.00
2023-12-23T03:08:30.703Z,95059.00
2023-12-23T03:09:30.683Z,95027.00
2023-12-23T03:10:30.683Z,95031.00
2023-12-23T03:11:30.665Z,95052.00
2023-12-23T03:12:30.665Z,95050.00
2023-12-23T03:13:30.642Z,95030.00
2023-12-23T03:14:30.665Z,95054.00
2023-12-23T03:15:30.636Z,95048.00
2023-12-23T03:16:30.627Z,95060.00
2023-12-23T03:17:30.661Z,95046.00
2023-12-23T03:18:30.675Z,95066.00
2023-12-23T03:19:30.604Z,95047.00
2023-12-23T03:20:30.582Z,95050.00
2023-12-23T03:21:30.583Z,95060.00
2023-12-23T03:22:30.565Z,95072.00
2023-12-23T03:23:30.593Z,95069.00
2023-12-23T03:24:30.549Z,95058.00
2023-12-23T03:25:30.572Z,95081.00
2023-12-23T03:26:30.547Z,95083.00
2023-12-23T03:27:30.521Z,95074.00
2023-12-23T03:28:30.528Z,95085.00
2023-12-23T03:29:30.505Z,95088.00
2023-12-23T03:30:30.588Z,95107.00
2023-12-23T03:31:30.483Z,95127.00
2023-12-23T03:32:30.513Z,95106.00
2023-12-23T03:33:30.530Z,95073.00
2023-12-23T03:34:30.480Z,95079.00
2023-12-23T03:35:30.440Z,95126.00
2023-12-23T03:36:30.453Z,95122.00
2023-12-23T03:37:30.432Z,95135.00
2023-12-23T03:38:30.440Z,95078.00
2023-12-23T03:39:30.426Z,95100.00
2023-12-23T03:40:30.422Z,95099.00
2023-12-23T03:41:30.424Z,95100.00
2023-12-23T03:42:30.389Z,95087.00
2023-12-23T03:43:30.394Z,95084.00
2023-12-23T03:44:30.374Z,95101.00
2023-12-23T03:45:30.360Z,95098.00
2023-12-23T03:46:30.371Z,95103.00
2023-12-23T03:47:30.446Z,95082.00
2023-12-23T03:48:30.411Z,95089.00
2023-12-23T03:49:30.346Z,95102.00
2023-12-23T03:50:30.327Z,95112.00
2023-12-23T03:51:30.311Z,95103.00
2023-12-23T03:52:30.308Z,95101.00
2023-12-23T03:53:30.348Z,95116.00
2023-12-23T03:54:30.299Z,95115.00
2023-12-23T03:55:30.349Z,95124.00
2023-12-23T03:56:30.277Z,95132.00
2023-12-23T03:57:30.264Z,95131.00
2023-12-23T03:58:30.305Z,95120.00
2023-12-23T03:59:30.315Z,95122.00
2023-12-23T04:00:30.236Z,95128.00
2023-12-23T04:01:30.237Z,95124.00
2023-12-23T04:02:30.223Z,95125.00
2023-12-23T04:03:30.246Z,95139.00
2023-12-23T04:04:30.987Z,95136.00
2023-12-23T04:05:30.199Z,95113.00
2023-12-23T04:06:30.203Z,95146.00
2023-12-23T04:07:30.198Z,95154.00
2023-12-23T04:08:30.212Z,95147.00
2023-12-23T04:09:30.157Z,95136.00
2023-12-23T04:10:30.160Z,95127.00
2023-12-23T04:11:30.164Z,95114.00
2023-12-23T04:12:30.142Z,95126.00
2023-12-23T04:13:30.127Z,95129.00
2023-12-23T04:14:30.154Z,95147.00
2023-12-23T04:15:30.103Z,95142.00
2023-12-23T04:16:30.108Z,95137.00
2023-12-23T04:17:30.121Z,95145.00
2023-12-23T04:18:30.204Z,95144.00
2023-12-23T04:19:30.068Z,95143.00
2023-12-23T04:20:30.113Z,95171.00
2023-12-23T04:21:30.081Z,95171.00
2023-12-23T04:22:30.048Z,95166.00
2023-12-23T04:23:30.103Z,95151.00
2023-12-23T04:24:30.042Z,95161.00
2023-12-23T04:25:30.023Z,95153.00
2023-12-23T04:26:35.058Z,95166.00
2023-12-23T04:27:30.004Z,95176.00
2023-12-23T04:28:29.995Z,95174.00
2023-12-23T04:29:29.989Z,95165.00
2023-12-23T04:30:30.028Z,95161.00
2023-12-23T04:31:30.014Z,95147.00
2023-12-23T04:32:30.064Z,95151.00
2023-12-23T04:33:30.014Z,95156.00
2023-12-23T04:34:29.958Z,95160.00
2023-12-23T04:35:29.924Z,95173.00
2023-12-23T04:36:34.971Z,95183.00
2023-12-23T04:37:29.915Z,95163.00
2023-12-23T04:38:29.906Z,95160.00
2023-12-23T04:39:29.922Z,95156.00
2023-12-23T04:40:29.886Z,95163.00
2023-12-23T04:41:29.886Z,95170.00
2023-12-23T04:42:29.890Z,95178.00
2023-12-23T04:43:29.855Z,95179.00
2023-12-23T04:44:29.856Z,95181.00
2023-12-23T04:45:29.855Z,95188.00
2023-12-23T04:46:29.866Z,95187.00
2023-12-23T04:47:29.836Z,95173.00
2023-12-23T04:48:29.870Z,95176.00
2023-12-23T04:49:29.809Z,95183.00
2023-12-23T04:50:29.817Z,95191.00
2023-12-23T04:51:29.783Z,95192.00
2023-12-23T04:52:29.793Z,95188.00
2023-12-23T04:53:29.811Z,95192.00
2023-12-23T04:54:29.789Z,95194.00
2023-12-23T04:55:29.750Z,95198.00
2023-12-23T04:56:29.780Z,95185.00
2023-12-23T04:57:29.733Z,95185.00
2023-12-23T04:58:29.735Z,95188.00
2023-12-23T04:59:29.774Z,95194.00
2023-12-23T05:00:29.712Z,95194.00
2023-12-23T05:01:29.765Z,95198.00
2023-12-23T05:02:29.696Z,95206.00
2023-12-23T05:03:29.737Z,95206.00
2023-12-23T05:04:29.676Z,95207.00
2023-12-23T05:05:29.729Z,95212.00
2023-12-23T05:06:29.723Z,95210.00
2023-12-23T05:07:29.644Z,95202.00
2023-12-23T05:08:29.725Z,95199.00
2023-12-23T05:09:29.638Z,95206.00
2023-12-23T05:10:29.642Z,95213.00
2023-12-23T05:11:29.611Z,95212.00
2023-12-23T05:12:29.611Z,95212.00
2023-12-23T05:13:29.640Z,95209.00
2023-12-23T05:14:29.594Z,95209.00
2023-12-23T05:15:29.584Z,95215.00
2023-12-23T05:16:29.582Z,95219.00
2023-12-23T05:17:29.679Z,95224.00
2023-12-23T05:18:29.647Z,95225.00
2023-12-23T05:19:29.534Z,95216.00
2023-12-23T05:20:29.560Z,95203.00
2023-12-23T05:21:34.540Z,95205.00
2023-12-23T05:22:29.519Z,95216.00
2023-12-23T05:23:29.525Z,95215.00
2023-12-23T05:24:29.525Z,95206.00
2023-12-23T05:25:29.491Z,95226.00
2023-12-23T05:26:29.549Z,95227.00
2023-12-23T05:27:29.535Z,95222.00
2023-12-23T05:28:29.458Z,95212.00
2023-12-23T05:29:29.475Z,95225.00
2023-12-23T05:30:29.499Z,95225.00
2023-12-23T05:31:29.453Z,95223.00
2023-12-23T05:32:32.192Z,95222.00
2023-12-23T05:33:29.528Z,95225.00
2023-12-23T05:34:29.414Z,95230.00
2023-12-23T05:35:29.459Z,95227.00
2023-12-23T05:36:29.416Z,95235.00
2023-12-23T05:37:29.384Z,95245.00
2023-12-23T05:38:29.477Z,95239.00
2023-12-23T05:39:29.369Z,95227.00
2023-12-23T05:40:29.392Z,95220.00
2023-12-23T05:41:29.354Z,95216.00
2023-12-23T05:42:29.354Z,95211.00
2023-12-23T05:43:29.350Z,95205.00
2023-12-23T05:44:29.398Z,95202.00
2023-12-23T05:45:29.335Z,95204.00
2023-12-23T05:46:29.320Z,95210.00
2023-12-23T05:47:29.362Z,95226.00
2023-12-23T05:48:29.361Z,95222.00
2023-12-23T05:49:29.304Z,95208.00
2023-12-23T05:50:29.355Z,95209.00
2023-12-23T05:51:34.334Z,95218.00
2023-12-23T05:52:29.266Z,95231.00
2023-12-23T05:53:29.346Z,95226.00
2023-12-23T05:54:29.251Z,95219.00
2023-12-23T05:55:29.397Z,95220.00
2023-12-23T05:56:34.389Z,95224.00
2023-12-23T05:57:29.203Z,95221.00
2023-12-23T05:58:29.251Z,95214.00
2023-12-23T05:59:29.203Z,95209.00
2023-12-23T06:00:29.204Z,95208.00
2023-12-23T06:01:39.286Z,95217.00
2023-12-23T06:02:29.225Z,95220.00
2023-12-23T06:03:29.185Z,95215.00
2023-12-23T06:04:29.204Z,95220.00
2023-12-23T06:05:29.184Z,95230.00
2023-12-23T06:06:29.188Z,95231.00
2023-12-23T06:07:29.125Z,95229.00
2023-12-23T06:08:29.108Z,95227.00
2023-12-23T06:09:29.129Z,95225.00
2023-12-23T06:10:30.398Z,95224.00
2023-12-23T06:11:29.213Z,95226.00
2023-12-23T06:12:29.156Z,95223.00
2023-12-23T06:13:29.147Z,95215.00
2023-12-23T06:14:29.162Z,95222.00
2023-12-23T06:15:29.140Z,95235.00
2023-12-23T06:16:29.138Z,95235.00
2023-12-23T06:17:29.372Z,95230.00
2023-12-23T06:18:29.197Z,95235.00
2023-12-23T06:19:29.089Z,95235.00
2023-12-23T06:20:29.132Z,95232.00
2023-12-23T06:21:34.088Z,95232.00
2023-12-23T06:22:29.066Z,95231.00
2023-12-23T06:23:29.081Z,95221.00
2023-12-23T06:24:29.060Z,95213.00
2023-12-23T06:25:29.036Z,95220.00
2023-12-23T06:26:29.064Z,95228.00
2023-12-23T06:27:29.008Z,95232.00
2023-12-23T06:28:29.015Z,95228.00
2023-12-23T06:29:34.024Z,95224.00
2023-12-23T06:30:29.037Z,95220.00
2023-12-23T06:31:28.995Z,95225.00
2023-12-23T06:32:29.151Z,95226.00
2023-12-23T06:33:29.070Z,95224.00
2023-12-23T06:34:28.998Z,95230.00
2023-12-23T06:35:28.997Z,95230.00
2023-12-23T06:36:28.937Z,95218.00
2023-12-23T06:37:28.933Z,95220.00
2023-12-23T06:38:28.963Z,95232.00
2023-12-23T06:39:28.926Z,95230.00
2023-12-23T06:40:28.897Z,95226.00
2023-12-23T06:41:28.891Z,95226.00
2023-12-23T06:42:28.902Z,95225.00
2023-12-23T06:43:45.472Z,95237.00
2023-12-23T06:44:29.899Z,95241.00
2023-12-23T06:45:29.965Z,95234.00
2023-12-23T06:46:28.860Z,95234.00
2023-12-23T06:47:29.033Z,95228.00
2023-12-23T06:48:31.240Z,95226.00
2023-12-23T06:49:29.104Z,95231.00
2023-12-23T06:50:28.851Z,95234.00
2023-12-23T06:51:28.838Z,95235.00
2023-12-23T06:52:28.851Z,95235.00
2023-12-23T06:53:28.842Z,95235.00
2023-12-23T06:54:28.780Z,95239.00
2023-12-23T06:55:28.772Z,95243.00
2023-12-23T06:56:28.763Z,95239.00
2023-12-23T06:57:28.764Z,95238.00
2023-12-23T06:58:28.764Z,95237.00
2023-12-23T06:59:28.761Z,95235.00
2023-12-23T07:00:28.727Z,95232.00
2023-12-23T07:01:28.746Z,95234.00
2023-12-23T07:02:28.700Z,95234.00
2023-12-23T07:03:28.762Z,95233.00
2023-12-23T07:04:28.680Z,95239.00
2023-12-23T07:05:28.800Z,95247.00
2023-12-23T07:06:28.669Z,95251.00
2023-12-23T07:07:28.696Z,95250.00
2023-12-23T07:08:28.659Z,95251.00
2023-12-23T07:09:28.644Z,95253.00
2023-12-23T07:10:28.624Z,95252.00
2023-12-23T07:11:28.635Z,95253.00
2023-12-23T07:12:28.622Z,95256.00
2023-12-23T07:13:28.610Z,95256.00
2023-12-23T07:14:28.606Z,95254.00
2023-12-23T07:15:28.590Z,95254.00
2023-12-23T07:16:28.587Z,95253.00
2023-12-23T07:17:38.302Z,95250.00
2023-12-23T07:18:29.611Z,95249.00
2023-12-23T07:19:28.592Z,95254.00
2023-12-23T07:20:28.574Z,95253.00
2023-12-23T07:21:28.529Z,95248.00
2023-12-23T07:22:28.519Z,95248.00
2023-12-23T07:23:28.531Z,95250.00
2023-12-23T07:24:28.510Z,95256.00
2023-12-23T07:25:28.522Z,95260.00
2023-12-23T07:26:28.527Z,95268.00
2023-12-23T07:27:28.497Z,95271.00
2023-12-23T07:28:28.491Z,95268.00
2023-12-23T07:29:28.531Z,95274.00
2023-12-23T07:30:28.514Z,95268.00
2023-12-23T07:31:28.456Z,95270.00
2023-12-23T07:32:28.546Z,95272.00
2023-12-23T07:33:28.573Z,95277.00
2023-12-23T07:34:28.417Z,95277.00
2023-12-23T07:35:28.487Z,95272.00
2023-12-23T07:36:28.407Z,95260.00
2023-12-23T07:37:28.395Z,95266.00
2023-12-23T07:38:28.432Z,95280.00
2023-12-23T07:39:28.376Z,95287.00
2023-12-23T07:40:31.091Z,95282.00
2023-12-23T07:41:28.470Z,95280.00
2023-12-23T07:42:28.349Z,95279.00
2023-12-23T07:43:28.366Z,95287.00
2023-12-23T07:44:28.388Z,95283.00
2023-12-23T07:45:28.318Z,95280.00
2023-12-23T07:46:28.333Z,95274.00
2023-12-23T07:47:28.398Z,95272.00
2023-12-23T07:48:28.304Z,95274.00
2023-12-23T07:49:28.301Z,95276.00
2023-12-23T07:50:28.402Z,95274.00
2023-12-23T07:51:28.282Z,95277.00
2023-12-23T07:52:28.269Z,95276.00
2023-12-23T07:53:28.329Z,95276.00
2023-12-23T07:54:28.272Z,95271.00
2023-12-23T07:55:28.236Z,95262.00
2023-12-23T07:56:28.258Z,95264.00
2023-12-23T07:57:28.214Z,95267.00
2023-12-23T07:58:28.200Z,95269.00
2023-12-23T07:59:28.201Z,95266.00
2023-12-23T08:00:28.172Z,95258.00
2023-12-23T08:01:28.213Z,95257.00
2023-12-23T08:02:28.189Z,95252.00
2023-12-23T08:03:28.158Z,95260.00
2023-12-23T08:04:28.152Z,95261.00
2023-12-23T08:05:28.182Z,95263.00
2023-12-23T08:06:28.229Z,95251.00
2023-12-23T08:07:28.128Z,95246.00
2023-12-23T08:08:28.205Z,95251.00
2023-12-23T08:09:28.103Z,95259.00
2023-12-23T08:10:28.111Z,95259.00
2023-12-23T08:11:28.133Z,95265.00
2023-12-23T08:12:28.094Z,95273.00
2023-12-23T08:13:28.065Z,95274.00
2023-12-23T08:14:28.076Z,95268.00
2023-12-23T08:15:28.077Z,95267.00
2023-12-23T08:16:28.033Z,95259.00
2023-12-23T08:17:28.146Z,95258.00
2023-12-23T08:18:28.083Z,95259.00
2023-12-23T08:19:28.152Z,95257.00
2023-12-23T08:20:28.077Z,95262.00
2023-12-23T08:21:28.004Z,95263.00
2023-12-23T08:22:27.981Z,95268.00
2023-12-23T08:23:28.011Z,95269.00
2023-12-23T08:24:27.961Z,95252.00
2023-12-23T08:25:27.954Z,95247.00
2023-12-23T08:26:28.005Z,95251.00
2023-12-23T08:27:27.954Z,95251.00
2023-12-23T08:28:27.941Z,95252.00
2023-12-23T08:29:28.001Z,95241.00
2023-12-23T08:30:27.979Z,95238.00
2023-12-23T08:31:27.905Z,95233.00
2023-12-23T08:32:28.039Z,95231.00
2023-12-23T08:33:27.956Z,95231.00
2023-12-23T08:34:27.881Z,95233.00
2023-12-23T08:35:27.885Z,95234.00
2023-12-23T08:36:27.863Z,95240.00
2023-12-23T08:37:27.869Z,95243.00
2023-12-23T08:38:27.878Z,95246.00
2023-12-23T08:39:27.869Z,95245.00
2023-12-23T08:40:27.833Z,95246.00
2023-12-23T08:41:27.871Z,95252.00
2023-12-23T08:42:27.804Z,95249.00
2023-12-23T08:43:27.805Z,95244.00
2023-12-23T08:44:27.815Z,95254.00
2023-12-23T08:45:27.784Z,95259.00
2023-12-23T08:46:27.769Z,95258.00
2023-12-23T08:47:27.910Z,95260.00
2023-12-23T08:48:27.816Z,95266.00
2023-12-23T08:49:27.901Z,95267.00
2023-12-23T08:50:27.784Z,95264.00
2023-12-23T08:51:27.735Z,95255.00
2023-12-23T08:52:27.742Z,95243.00
2023-12-23T08:53:27.723Z,95250.00
2023-12-23T08:54:27.708Z,95252.00
2023-12-23T08:55:27.696Z,95249.00
2023-12-23T08:56:27.779Z,95242.00
2023-12-23T08:57:27.691Z,95232.00
2023-12-23T08:58:27.681Z,95230.00
2023-12-23T08:59:27.696Z,95231.00
2023-12-23T09:00:27.640Z,95236.00
2023-12-23T09:01:27.646Z,95234.00
2023-12-23T09:02:28.437Z,95232.00
2023-12-23T09:03:27.760Z,95232.00
2023-12-23T09:04:27.597Z,95227.00
2023-12-23T09:05:27.717Z,95228.00
2023-12-23T09:06:27.652Z,95230.00
2023-12-23T09:07:27.590Z,95234.00
2023-12-23T09:08:27.646Z,95227.00
2023-12-23T09:09:27.563Z,95223.00
2023-12-23T09:10:27.545Z,95232.00
2023-12-23T09:11:27.665Z,95221.00
2023-12-23T09:12:27.540Z,95215.00
2023-12-23T09:13:27.551Z,95227.00
2023-12-23T09:14:27.584Z,95227.00
2023-12-23T09:15:27.531Z,95214.00
2023-12-23T09:16:27.515Z,95204.00
2023-12-23T09:17:28.604Z,95224.00
2023-12-23T09:18:27.547Z,95237.00
2023-12-23T09:19:27.560Z,95230.00
2023-12-23T09:20:27.551Z,95220.00
2023-12-23T09:21:27.480Z,95214.00
2023-12-23T09:22:27.459Z,95207.00
2023-12-23T09:23:27.514Z,95217.00
2023-12-23T09:24:27.425Z,95226.00
2023-12-23T09:25:27.514Z,95213.00
2023-12-23T09:26:27.476Z,95204.00
2023-12-23T09:27:27.411Z,95187.00
2023-12-23T09:28:27.391Z,95197.00
2023-12-23T09:29:27.474Z,95196.00
2023-12-23T09:30:27.431Z,95191.00
2023-12-23T09:31:27.401Z,95189.00
2023-12-23T09:32:27.449Z,95192.00
2023-12-23T09:33:27.441Z,95194.00
2023-12-23T09:34:27.343Z,95199.00
2023-12-23T09:35:27.459Z,95203.00
2023-12-23T09:36:27.363Z,95206.00
2023-12-23T09:37:27.319Z,95191.00
2023-12-23T09:38:27.438Z,95194.00
2023-12-23T09:39:27.309Z,95202.00
2023-12-23T09:40:27.293Z,95199.00
2023-12-23T09:41:27.305Z,95200.00
2023-12-23T09:42:27.275Z,95207.00
2023-12-23T09:43:27.287Z,95219.00
2023-12-23T09:44:27.340Z,95216.00
2023-12-23T09:45:27.270Z,95204.00
2023-12-23T09:46:27.243Z,95202.00
2023-12-23T09:47:27.448Z,95203.00
2023-12-23T09:48:27.262Z,95200.00
2023-12-23T09:49:27.360Z,95200.00
2023-12-23T09:50:27.234Z,95207.00
2023-12-23T09:51:27.216Z,95188.00
2023-12-23T09:52:27.208Z,95177.00
2023-12-23T09:53:27.257Z,95181.00
2023-12-23T09:54:27.171Z,95202.00
2023-12-23T09:55:27.238Z,95212.00
2023-12-23T09:56:27.221Z,95196.00
2023-12-23T09:57:27.190Z,95184.00
2023-12-23T09:58:27.132Z,95177.00
2023-12-23T09:59:27.149Z,95164.00
2023-12-23T10:00:27.115Z,95178.00
2023-12-23T10:01:27.120Z,95182.00
2023-12-23T10:02:27.119Z,95180.00
2023-12-23T10:03:27.135Z,95182.00
2023-12-23T10:04:27.075Z,95174.00
2023-12-23T10:05:27.255Z,95175.00
2023-12-23T10:06:27.098Z,95194.00
2023-12-23T10:07:27.104Z,95188.00
2023-12-23T10:08:27.131Z,95183.00
2023-12-23T10:09:27.057Z,95187.00
2023-12-23T10:10:27.071Z,95189.00
2023-12-23T10:11:27.198Z,95182.00
2023-12-23T10:12:27.072Z,95183.00
2023-12-23T10:13:26.995Z,95178.00
2023-12-23T10:14:27.060Z,95168.00
2023-12-23T10:15:27.091Z,95159.00
2023-12-23T10:16:27.107Z,95173.00
2023-12-23T10:17:27.087Z,95180.00
2023-12-23T10:18:27.011Z,95167.00
2023-12-23T10:19:27.008Z,95169.00
2023-12-23T10:20:26.925Z,95153.00
2023-12-23T10:21:26.934Z,95145.00
2023-12-23T10:22:26.923Z,95160.00
2023-12-23T10:23:26.959Z,95177.00
2023-12-23T10:24:26.888Z,95168.00
2023-12-23T10:25:26.894Z,95165.00
2023-12-23T10:26:26.910Z,95167.00
2023-12-23T10:27:26.890Z,95162.00
2023-12-23T10:28:26.853Z,95162.00
2023-12-23T10:29:26.899Z,95164.00
2023-12-23T10:30:26.850Z,95167.00
2023-12-23T10:31:26.834Z,95159.00
2023-12-23T10:32:26.905Z,95165.00
2023-12-23T10:33:26.858Z,95165.00
2023-12-23T10:34:26.847Z,95162.00
2023-12-23T10:35:26.795Z,95169.00
2023-12-23T10:36:26.800Z,95170.00
2023-12-23T10:37:26.778Z,95158.00
2023-12-23T10:38:26.876Z,95150.00
2023-12-23T10:39:26.748Z,95148.00
2023-12-23T10:40:29.508Z,95151.00
2023-12-23T10:41:26.747Z,95152.00
2023-12-23T10:42:26.733Z,95154.00
2023-12-23T10:43:26.732Z,95165.00
2023-12-23T10:44:26.841Z,95166.00
2023-12-23T10:45:26.690Z,95160.00
2023-12-23T10:46:26.694Z,95148.00
2023-12-23T10:47:26.807Z,95150.00
2023-12-23T10:48:26.763Z,95157.00
2023-12-23T10:49:26.713Z,95156.00
2023-12-23T10:50:26.720Z,95152.00
2023-12-23T10:51:26.642Z,95149.00
2023-12-23T10:52:26.650Z,95151.00
2023-12-23T10:53:26.651Z,95150.00
2023-12-23T10:54:26.609Z,95156.00
2023-12-23T10:55:26.620Z,95152.00
2023-12-23T10:56:26.612Z,95156.00
2023-12-23T10:57:26.624Z,95155.00
2023-12-23T10:58:26.592Z,95133.00
2023-12-23T10:59:26.655Z,95137.00
2023-12-23T11:00:26.562Z,95153.00
2023-12-23T11:01:29.742Z,95160.00
2023-12-23T11:02:26.633Z,95151.00
2023-12-23T11:03:26.551Z,95145.00
2023-12-23T11:04:26.529Z,95148.00
2023-12-23T11:05:26.683Z,95139.00
2023-12-23T11:06:26.586Z,95129.00
2023-12-23T11:07:26.496Z,95147.00
2023-12-23T11:08:26.531Z,95157.00
2023-12-23T11:09:26.482Z,95154.00
2023-12-23T11:10:26.512Z,95147.00
2023-12-23T11:11:26.561Z,95152.00
2023-12-23T11:12:26.457Z,95147.00
2023-12-23T11:13:26.435Z,95137.00
2023-12-23T11:14:26.523Z,95146.00
2023-12-23T11:15:26.439Z,95151.00
2023-12-23T11:16:26.426Z,95144.00
2023-12-23T11:17:26.594Z,95136.00
2023-12-23T11:18:26.469Z,95140.00
2023-12-23T11:19:26.535Z,95119.00
2023-12-23T11:20:26.385Z,95127.00
2023-12-23T11:21:26.390Z,95130.00
2023-12-23T11:22:26.408Z,95121.00
2023-12-23T11:23:26.404Z,95118.00
2023-12-23T11:24:26.355Z,95130.00
2023-12-23T11:25:26.342Z,95128.00
2023-12-23T11:26:26.390Z,95114.00
2023-12-23T11:27:26.314Z,95103.00
2023-12-23T11:28:26.419Z,95089.00
2023-12-23T11:29:26.321Z,95110.00
2023-12-23T11:30:26.358Z,95117.00
2023-12-23T11:31:26.271Z,95111.00
2023-12-23T11:32:26.427Z,95111.00
2023-12-23T11:33:26.332Z,95098.00
2023-12-23T11:34:26.259Z,95091.00
2023-12-23T11:35:26.311Z,95085.00
2023-12-23T11:36:26.236Z,95092.00
2023-12-23T11:37:26.222Z,95091.00
2023-12-23T11:38:26.384Z,95082.00
2023-12-23T11:39:26.197Z,95070.00
2023-12-23T11:40:26.211Z,95082.00
2023-12-23T11:41:26.236Z,95096.00
2023-12-23T11:42:26.186Z,95105.00
2023-12-23T11:43:26.170Z,95098.00
2023-12-23T11:44:26.259Z,95089.00